createdAt,value
2022-10-17T00:00:31.044Z,6.67
2022-10-17T00:03:18.549Z,7.08
2022-10-17T00:06:11.331Z,6.58
2022-10-17T00:08:58.729Z,6.83
2022-10-17T00:11:45.624Z,6.55
2022-10-17T00:14:33.038Z,6.65
2022-10-17T00:17:20.432Z,6.67
2022-10-17T00:20:08.566Z,6.80
2022-10-17T00:22:55.910Z,6.97
2022-10-17T00:25:43.542Z,6.03
2022-10-17T00:28:30.923Z,6.33
2022-10-17T00:31:19.915Z,6.42
2022-10-17T00:34:06.940Z,6.58
2022-10-17T00:36:54.315Z,6.62
2022-10-17T00:39:41.452Z,6.37
2022-10-17T00:42:29.274Z,6.62
2022-10-17T00:45:22.601Z,7.20
2022-10-17T00:48:11.920Z,7.00
2022-10-17T00:51:00.684Z,6.53
2022-10-17T00:53:48.217Z,6.67
2022-10-17T00:56:36.048Z,6.45
2022-10-17T00:59:24.179Z,6.85
2022-10-17T01:02:15.282Z,7.12
2022-10-17T01:05:03.273Z,7.75
2022-10-17T01:08:11.195Z,7.05
2022-10-17T01:11:13.100Z,6.87
2022-10-17T01:14:09.144Z,8.78
2022-10-17T01:17:16.112Z,7.77
2022-10-17T01:20:24.861Z,6.72
2022-10-17T01:23:49.734Z,7.15
2022-10-17T01:27:09.751Z,6.65
2022-10-17T01:30:34.835Z,5.78
2022-10-17T01:33:30.980Z,6.60
2022-10-17T01:36:43.757Z,7.25
2022-10-17T01:39:52.551Z,6.92
2022-10-17T01:42:48.504Z,7.05
2022-10-17T01:45:38.688Z,7.23
2022-10-17T01:48:28.910Z,7.30
2022-10-17T01:51:25.106Z,7.00
2022-10-17T01:54:18.128Z,7.53
2022-10-17T01:57:08.746Z,7.40
2022-10-17T01:59:57.660Z,7.25
2022-10-17T02:02:47.782Z,7.67
2022-10-17T02:05:38.248Z,7.47
2022-10-17T02:08:34.470Z,8.53
2022-10-17T02:11:27.669Z,8.40
2022-10-17T02:14:34.357Z,8.10
2022-10-17T02:17:36.770Z,8.48
2022-10-17T02:20:38.637Z,9.33
2022-10-17T02:23:38.076Z,8.20
2022-10-17T02:26:28.618Z,8.45
2022-10-17T02:29:21.665Z,8.38
2022-10-17T02:32:12.268Z,8.65
2022-10-17T02:35:03.077Z,8.35
2022-10-17T02:37:51.960Z,8.83
2022-10-17T02:40:41.539Z,8.43
2022-10-17T02:43:29.617Z,8.40
2022-10-17T02:46:22.426Z,8.75
2022-10-17T02:49:31.251Z,8.18
2022-10-17T02:52:42.495Z,8.50
2022-10-17T02:55:35.945Z,8.00
2022-10-17T02:58:26.185Z,8.08
2022-10-17T03:01:14.569Z,8.18
2022-10-17T03:04:14.067Z,8.25
2022-10-17T03:07:01.660Z,8.30
2022-10-17T03:09:49.044Z,9.15
2022-10-17T03:12:36.476Z,8.25
2022-10-17T03:15:23.679Z,8.78
2022-10-17T03:18:10.935Z,8.28
2022-10-17T03:20:58.209Z,7.28
2022-10-17T03:23:45.584Z,9.15
2022-10-17T03:26:33.048Z,7.22
2022-10-17T03:29:20.341Z,8.30
2022-10-17T03:32:08.548Z,7.80
2022-10-17T03:34:55.766Z,8.70
2022-10-17T03:37:42.986Z,8.53
2022-10-17T03:40:30.546Z,8.73
2022-10-17T03:43:17.704Z,8.35
2022-10-17T03:46:05.242Z,8.93
2022-10-17T03:48:52.536Z,9.15
2022-10-17T03:51:39.916Z,8.73
2022-10-17T03:54:27.132Z,8.30
2022-10-17T03:57:14.246Z,9.38
2022-10-17T04:00:01.570Z,8.50
2022-10-17T04:02:48.978Z,8.70
2022-10-17T04:05:36.338Z,8.33
2022-10-17T04:08:24.029Z,8.95
2022-10-17T04:11:14.611Z,8.83
2022-10-17T04:14:02.017Z,8.20
2022-10-17T04:16:49.140Z,8.83
2022-10-17T04:19:36.574Z,8.88
2022-10-17T04:22:23.775Z,7.65
2022-10-17T04:25:11.200Z,8.33
2022-10-17T04:27:58.332Z,8.10
2022-10-17T04:30:45.888Z,8.85
2022-10-17T04:33:34.123Z,8.53
2022-10-17T04:36:23.295Z,8.35
2022-10-17T04:39:11.630Z,8.58
2022-10-17T04:41:59.050Z,8.73
2022-10-17T04:44:46.390Z,8.53
2022-10-17T04:47:33.557Z,8.48
2022-10-17T04:50:21.013Z,8.85
2022-10-17T04:53:08.469Z,8.23
2022-10-17T04:55:56.087Z,8.40
2022-10-17T04:58:45.038Z,8.53
2022-10-17T05:01:32.536Z,8.58
2022-10-17T05:04:22.413Z,8.53
2022-10-17T05:07:08.802Z,9.53
2022-10-17T05:09:55.996Z,10.18
2022-10-17T05:12:43.291Z,9.03
2022-10-17T05:15:30.516Z,9.33
2022-10-17T05:18:17.852Z,8.75
2022-10-17T05:21:05.697Z,9.25
2022-10-17T05:23:53.790Z,9.20
2022-10-17T05:26:40.975Z,8.23
2022-10-17T05:29:28.220Z,9.18
2022-10-17T05:32:17.021Z,9.23
2022-10-17T05:35:04.628Z,9.75
2022-10-17T05:37:51.657Z,9.45
2022-10-17T05:40:39.326Z,9.75
2022-10-17T05:43:27.160Z,9.10
2022-10-17T05:46:14.020Z,9.50
2022-10-17T05:49:01.511Z,11.08
2022-10-17T05:51:49.127Z,9.75
2022-10-17T05:54:36.692Z,10.58
2022-10-17T05:57:26.367Z,10.48
2022-10-17T06:00:14.402Z,11.57
2022-10-17T06:03:01.884Z,11.68
2022-10-17T06:05:49.436Z,11.45
2022-10-17T06:08:36.916Z,11.53
2022-10-17T06:11:24.104Z,11.30
2022-10-17T06:14:11.467Z,11.35
2022-10-17T06:16:59.149Z,11.55
2022-10-17T06:19:46.420Z,11.50
2022-10-17T06:22:33.876Z,11.25
2022-10-17T06:25:21.229Z,11.53
2022-10-17T06:28:08.600Z,11.18
2022-10-17T06:30:56.364Z,11.22
2022-10-17T06:33:44.815Z,11.38
2022-10-17T06:36:32.208Z,11.93
2022-10-17T06:39:19.559Z,10.58
2022-10-17T06:42:07.009Z,10.43
2022-10-17T06:44:54.641Z,10.03
2022-10-17T06:47:41.987Z,10.93
2022-10-17T06:50:29.594Z,10.80
2022-10-17T06:53:17.022Z,11.73
2022-10-17T06:56:05.037Z,10.72
2022-10-17T06:58:53.084Z,10.10
2022-10-17T07:01:43.082Z,8.98
2022-10-17T07:04:29.475Z,8.55
2022-10-17T07:07:17.000Z,8.33
2022-10-17T07:10:06.209Z,7.72
2022-10-17T07:12:53.472Z,8.13
2022-10-17T07:15:41.012Z,9.00
2022-10-17T07:18:28.546Z,8.90
2022-10-17T07:21:16.065Z,10.25
2022-10-17T07:24:03.649Z,9.38
2022-10-17T07:26:51.033Z,8.48
2022-10-17T07:29:38.544Z,13.83
2022-10-17T07:32:25.984Z,11.22
2022-10-17T07:35:13.682Z,10.28
2022-10-17T07:38:01.080Z,8.93
2022-10-17T07:40:51.607Z,8.88
2022-10-17T07:43:39.106Z,8.13
2022-10-17T07:46:26.260Z,7.95
2022-10-17T07:49:13.916Z,8.65
2022-10-17T07:52:01.159Z,8.03
2022-10-17T07:54:48.361Z,8.25
2022-10-17T07:57:35.879Z,7.78
2022-10-17T08:00:23.389Z,7.53
2022-10-17T08:03:11.928Z,6.97
2022-10-17T08:06:03.237Z,6.83
2022-10-17T08:08:50.596Z,7.10
2022-10-17T08:11:38.095Z,6.58
2022-10-17T08:14:25.604Z,6.03
2022-10-17T08:17:12.943Z,6.28
2022-10-17T08:20:00.501Z,5.92
2022-10-17T08:22:53.458Z,7.60
2022-10-17T08:25:40.784Z,7.60
2022-10-17T08:28:28.508Z,9.75
2022-10-17T08:31:21.241Z,6.10
2022-10-17T08:34:08.506Z,6.50
2022-10-17T08:36:55.695Z,5.55
2022-10-17T08:39:43.837Z,5.83
2022-10-17T08:42:46.454Z,5.28
2022-10-17T08:45:43.163Z,5.45
2022-10-17T08:48:36.354Z,4.90
2022-10-17T08:51:29.622Z,5.35
2022-10-17T08:54:19.820Z,5.45
2022-10-17T08:57:29.150Z,4.95
2022-10-17T09:00:20.044Z,4.75
2022-10-17T09:03:32.068Z,5.12
2022-10-17T09:06:23.970Z,4.53
2022-10-17T09:09:34.087Z,5.28
2022-10-17T09:12:33.108Z,5.40
2022-10-17T09:15:27.532Z,5.83
2022-10-17T09:18:22.155Z,5.22
2022-10-17T09:21:21.436Z,6.17
2022-10-17T09:24:17.729Z,5.75
2022-10-17T09:27:06.579Z,4.70
2022-10-17T09:30:27.047Z,4.80
2022-10-17T09:33:34.765Z,4.50
2022-10-17T09:36:24.084Z,4.33
2022-10-17T09:39:20.474Z,4.85
2022-10-17T09:42:09.487Z,4.10
2022-10-17T09:45:05.255Z,4.15
2022-10-17T09:48:00.943Z,3.40
2022-10-17T09:50:57.810Z,3.55
2022-10-17T09:53:43.198Z,3.98
2022-10-17T09:56:30.535Z,3.25
2022-10-17T09:59:20.747Z,3.33
2022-10-17T10:02:22.939Z,3.52
2022-10-17T10:05:19.861Z,3.67
2022-10-17T10:08:18.517Z,6.33
2022-10-17T10:11:13.510Z,6.00
2022-10-17T10:14:00.424Z,3.72
2022-10-17T10:16:49.887Z,3.25
2022-10-17T10:19:39.102Z,3.08
2022-10-17T10:22:28.053Z,3.12
2022-10-17T10:25:18.920Z,3.25
2022-10-17T10:28:11.940Z,3.08
2022-10-17T10:31:02.429Z,3.20
2022-10-17T10:33:52.136Z,3.30
2022-10-17T10:36:47.886Z,3.35
2022-10-17T10:39:38.216Z,4.97
2022-10-17T10:42:28.803Z,3.17
2022-10-17T10:48:31.925Z,3.50
2022-10-17T10:51:24.517Z,4.28
2022-10-17T10:54:18.065Z,9.30
2022-10-17T10:57:08.575Z,3.50
2022-10-17T11:00:12.518Z,3.22
2022-10-17T11:03:03.906Z,3.02
2022-10-17T11:05:54.419Z,3.08
2022-10-17T11:08:53.665Z,5.92
2022-10-17T11:11:46.510Z,3.30
2022-10-17T11:14:39.128Z,3.20
2022-10-17T11:17:50.792Z,2.85
2022-10-17T11:20:47.056Z,3.37
2022-10-17T11:23:37.463Z,3.67
2022-10-17T11:26:31.557Z,3.00
2022-10-17T11:29:19.213Z,3.12
2022-10-17T11:32:12.564Z,3.17
2022-10-17T11:35:02.959Z,2.90
2022-10-17T11:37:59.099Z,2.98
2022-10-17T11:40:49.445Z,2.50
2022-10-17T11:43:48.773Z,2.62
2022-10-17T11:46:37.546Z,2.65
2022-10-17T11:52:44.305Z,2.50
2022-10-17T11:55:23.294Z,2.85
2022-10-17T11:58:39.677Z,2.98
2022-10-17T12:01:42.012Z,3.02
2022-10-17T12:04:56.566Z,2.87
2022-10-17T12:07:59.035Z,2.60
2022-10-17T12:11:07.781Z,2.60
2022-10-17T12:13:56.747Z,2.98
2022-10-17T12:16:45.699Z,3.10
2022-10-17T12:19:35.837Z,2.92
2022-10-17T12:22:27.155Z,2.85
2022-10-17T12:25:20.588Z,2.75
2022-10-17T12:28:36.522Z,2.85
2022-10-17T12:31:29.886Z,2.77
2022-10-17T12:34:18.889Z,2.67
2022-10-17T12:37:06.120Z,2.87
2022-10-17T12:39:53.392Z,2.75
2022-10-17T12:42:49.627Z,3.02
2022-10-17T12:45:53.999Z,2.80
2022-10-17T12:48:44.664Z,2.75
2022-10-17T12:51:41.546Z,2.72
2022-10-17T12:54:37.938Z,2.50
2022-10-17T12:57:30.297Z,2.52
2022-10-17T13:03:25.878Z,2.90
2022-10-17T13:06:20.812Z,2.70
2022-10-17T13:09:23.841Z,2.90
2022-10-17T13:12:14.426Z,2.80
2022-10-17T13:15:11.889Z,2.80
2022-10-17T13:18:02.089Z,2.52
2022-10-17T13:21:05.536Z,2.67
2022-10-17T13:23:56.101Z,2.50
2022-10-17T13:26:49.691Z,2.92
2022-10-17T13:29:39.063Z,2.70
2022-10-17T13:32:29.333Z,2.60
2022-10-17T13:38:24.225Z,3.67
2022-10-17T13:44:06.886Z,2.92
2022-10-17T13:46:54.743Z,2.90
2022-10-17T13:49:44.271Z,2.62
2022-10-17T13:52:32.271Z,2.67
2022-10-17T13:55:21.708Z,2.87
2022-10-17T13:58:17.993Z,2.80
2022-10-17T14:01:05.821Z,2.70
2022-10-17T14:04:07.117Z,2.45
2022-10-17T14:06:47.580Z,2.72
2022-10-17T14:09:33.799Z,2.72
2022-10-17T14:12:23.183Z,2.20
2022-10-17T14:15:13.533Z,2.52
2022-10-17T14:18:07.750Z,2.47
2022-10-17T14:21:33.956Z,2.50
2022-10-17T14:23:45.178Z,2.10
2022-10-17T14:26:34.145Z,2.17
2022-10-17T14:29:33.598Z,2.10
2022-10-17T14:32:21.871Z,2.27
2022-10-17T14:35:30.689Z,2.62
2022-10-17T14:38:03.717Z,2.60
2022-10-17T14:41:00.372Z,2.20
2022-10-17T14:43:42.671Z,2.22
2022-10-17T14:46:30.367Z,2.22
2022-10-17T14:49:24.977Z,2.58
2022-10-17T14:52:17.712Z,5.95
2022-10-17T14:55:14.595Z,4.08
2022-10-17T14:58:02.764Z,1.90
2022-10-17T15:00:50.288Z,2.40
2022-10-17T15:03:37.540Z,2.37
2022-10-17T15:06:35.454Z,2.55
2022-10-17T15:09:23.786Z,2.20
2022-10-17T15:12:17.376Z,2.20
2022-10-17T15:15:04.728Z,2.00
2022-10-17T15:17:51.998Z,2.35
2022-10-17T15:20:40.037Z,2.25
2022-10-17T15:23:27.266Z,2.85
2022-10-17T15:26:27.093Z,2.52
2022-10-17T15:29:17.718Z,3.10
2022-10-17T15:32:05.043Z,2.62
2022-10-17T15:34:52.307Z,2.33
2022-10-17T15:37:39.629Z,2.35
2022-10-17T15:40:29.239Z,2.37
2022-10-17T15:43:19.788Z,2.45
2022-10-17T15:46:05.339Z,2.87
2022-10-17T15:48:53.847Z,6.78
2022-10-17T15:51:41.953Z,2.98
2022-10-17T15:54:29.220Z,5.10
2022-10-17T15:57:22.977Z,2.90
2022-10-17T16:00:31.451Z,2.80
2022-10-17T16:03:18.439Z,3.20
2022-10-17T16:06:08.534Z,2.95
2022-10-17T16:08:55.395Z,2.80
2022-10-17T16:11:44.994Z,3.58
2022-10-17T16:14:33.612Z,3.22
2022-10-17T16:17:20.922Z,3.12
2022-10-17T16:20:09.846Z,3.30
2022-10-17T16:22:58.858Z,3.08
2022-10-17T16:25:45.949Z,3.22
2022-10-17T16:28:33.389Z,3.25
2022-10-17T16:31:29.486Z,3.80
2022-10-17T16:34:17.179Z,3.37
2022-10-17T16:37:04.449Z,3.87
2022-10-17T16:39:53.538Z,4.08
2022-10-17T16:42:41.156Z,4.22
2022-10-17T16:45:28.575Z,3.75
2022-10-17T16:48:17.514Z,4.40
2022-10-17T16:51:04.685Z,3.92
2022-10-17T16:53:54.358Z,4.03
2022-10-17T16:56:42.153Z,5.17
2022-10-17T16:59:29.380Z,4.30
2022-10-17T17:02:18.953Z,3.90
2022-10-17T17:05:05.102Z,4.17
2022-10-17T17:07:52.627Z,4.28
2022-10-17T17:10:43.110Z,4.15
2022-10-17T17:13:30.471Z,4.12
2022-10-17T17:16:22.294Z,4.67
2022-10-17T17:19:13.163Z,4.17
2022-10-17T17:22:00.293Z,4.10
2022-10-17T17:27:34.892Z,3.72
2022-10-17T17:30:22.156Z,4.03
2022-10-17T17:33:09.246Z,3.92
2022-10-17T17:36:01.675Z,3.75
2022-10-17T17:38:50.771Z,4.97
2022-10-17T17:41:38.756Z,3.62
2022-10-17T17:44:25.910Z,4.67
2022-10-17T17:47:13.020Z,4.22
2022-10-17T17:50:00.428Z,3.77
2022-10-17T17:52:49.683Z,3.90
2022-10-17T17:55:37.576Z,4.40
2022-10-17T17:58:24.963Z,4.58
2022-10-17T18:01:17.579Z,4.37
2022-10-17T18:04:08.439Z,4.67
2022-10-17T18:06:55.852Z,5.00
2022-10-17T18:09:42.880Z,4.55
2022-10-17T18:12:30.892Z,4.53
2022-10-17T18:15:18.327Z,4.25
2022-10-17T18:18:05.828Z,4.78
2022-10-17T18:20:54.652Z,4.65
2022-10-17T18:23:44.877Z,4.42
2022-10-17T18:26:32.084Z,4.87
2022-10-17T18:29:20.295Z,4.00
2022-10-17T18:32:07.739Z,4.22
2022-10-17T18:34:55.031Z,3.50
2022-10-17T18:37:42.397Z,4.17
2022-10-17T18:40:29.910Z,3.80
2022-10-17T18:43:17.207Z,3.95
2022-10-17T18:46:08.597Z,3.70
2022-10-17T18:48:55.849Z,4.00
2022-10-17T18:51:43.672Z,4.37
2022-10-17T18:54:32.532Z,4.10
2022-10-17T18:57:21.516Z,4.60
2022-10-17T19:00:09.594Z,4.37
2022-10-17T19:02:56.780Z,4.75
2022-10-17T19:05:46.231Z,5.62
2022-10-17T19:08:34.028Z,4.97
2022-10-17T19:11:26.268Z,4.65
2022-10-17T19:14:14.382Z,4.85
2022-10-17T19:17:02.355Z,4.90
2022-10-17T19:19:51.614Z,5.45
2022-10-17T19:22:38.825Z,4.80
2022-10-17T19:25:26.390Z,4.55
2022-10-17T19:28:13.560Z,5.25
2022-10-17T19:31:01.174Z,5.62
2022-10-17T19:33:50.788Z,5.42
2022-10-17T19:36:38.077Z,6.03
2022-10-17T19:39:26.456Z,5.87
2022-10-17T19:42:13.818Z,5.67
2022-10-17T19:45:02.396Z,5.05
2022-10-17T19:47:49.480Z,4.80
2022-10-17T19:50:39.195Z,4.67
2022-10-17T19:53:27.958Z,4.97
2022-10-17T19:56:16.807Z,4.92
2022-10-17T19:59:04.411Z,4.80
2022-10-17T20:01:51.843Z,5.40
2022-10-17T20:04:49.560Z,4.97
2022-10-17T20:07:28.377Z,5.12
2022-10-17T20:10:15.778Z,5.30
2022-10-17T20:13:03.360Z,4.15
2022-10-17T20:15:58.084Z,4.78
2022-10-17T20:18:46.161Z,4.30
2022-10-17T20:21:38.988Z,4.92
2022-10-17T20:24:26.231Z,5.70
2022-10-17T20:27:13.475Z,4.33
2022-10-17T20:30:02.369Z,4.70
2022-10-17T20:32:54.774Z,4.25
2022-10-17T20:38:30.986Z,4.75
2022-10-17T20:41:18.251Z,4.95
2022-10-17T20:44:06.800Z,4.53
2022-10-17T20:47:01.586Z,4.47
2022-10-17T20:49:42.929Z,3.80
2022-10-17T20:52:30.518Z,4.78
2022-10-17T20:55:17.988Z,4.40
2022-10-17T20:58:05.433Z,4.58
2022-10-17T21:00:52.703Z,4.45
2022-10-17T21:03:43.890Z,4.25
2022-10-17T21:06:30.058Z,3.98
2022-10-17T21:09:17.644Z,4.58
2022-10-17T21:12:05.352Z,4.62
2022-10-17T21:14:52.839Z,4.80
2022-10-17T21:17:40.201Z,4.90
2022-10-17T21:20:27.856Z,4.75
2022-10-17T21:23:15.190Z,4.85
2022-10-17T21:26:04.010Z,4.53
2022-10-17T21:28:51.848Z,4.22
2022-10-17T21:31:40.702Z,4.75
2022-10-17T21:34:28.708Z,4.10
2022-10-17T21:37:16.667Z,4.10
2022-10-17T21:40:04.178Z,4.12
2022-10-17T21:42:51.645Z,3.90
2022-10-17T21:45:39.379Z,3.90
2022-10-17T21:48:27.329Z,3.50
2022-10-17T21:51:17.311Z,3.70
2022-10-17T21:54:05.986Z,3.72
2022-10-17T21:56:53.665Z,3.52
2022-10-17T21:59:41.211Z,4.25
2022-10-17T22:02:30.108Z,4.00
2022-10-17T22:05:17.175Z,4.20
2022-10-17T22:08:04.592Z,4.30
2022-10-17T22:10:51.741Z,4.15
2022-10-17T22:13:39.849Z,4.12
2022-10-17T22:16:27.701Z,4.92
2022-10-17T22:19:18.331Z,4.40
2022-10-17T22:22:05.612Z,4.40
2022-10-17T22:24:52.885Z,4.12
2022-10-17T22:27:40.187Z,3.90
2022-10-17T22:30:27.887Z,4.30
2022-10-17T22:33:15.583Z,3.72
2022-10-17T22:36:04.059Z,3.87
2022-10-17T22:38:51.798Z,4.37
2022-10-17T22:41:39.093Z,3.40
2022-10-17T22:44:26.194Z,3.95
2022-10-17T22:47:13.498Z,4.00
2022-10-17T22:50:01.020Z,3.83
2022-10-17T22:52:48.312Z,4.00
2022-10-17T22:55:35.808Z,3.90
2022-10-17T22:58:23.826Z,3.77
2022-10-17T23:01:16.828Z,3.40
2022-10-17T23:04:04.326Z,3.87
2022-10-17T23:06:51.515Z,3.60
2022-10-17T23:09:39.389Z,4.15
2022-10-17T23:12:26.675Z,4.17
2022-10-17T23:15:13.947Z,3.70
2022-10-17T23:18:02.262Z,4.05
2022-10-17T23:20:49.927Z,3.85
2022-10-17T23:23:37.689Z,4.28
2022-10-17T23:26:25.128Z,4.00
2022-10-17T23:29:12.381Z,4.22
2022-10-17T23:32:00.533Z,4.20
2022-10-17T23:34:47.898Z,3.77
2022-10-17T23:37:35.823Z,3.75
2022-10-17T23:40:23.230Z,4.92
2022-10-17T23:43:10.754Z,4.22
2022-10-17T23:45:58.638Z,3.35
2022-10-17T23:48:45.822Z,3.72
2022-10-17T23:51:33.482Z,4.03
2022-10-17T23:54:20.919Z,4.58
2022-10-17T23:57:08.219Z,4.53
2022-10-17T23:59:55.718Z,4.92
